x

Chambers Island, Wi (cbrw3) Weather Station

9:40am - Tue 31st Mar 2015 All times are CDT. -5 hours from GMT.

  • Wind
    6mph, 8mph gusts
  • Air Temp 34°f
  • Sea Pressure 1013.2mb
  • Chambers Island, Wi
  • Chambers Island, Wi

More Historic Weather Station data

Upgrade to MSW Pro to gain access to the past 30 days of data for over 8000 Wavebouys and Weather Stations around the globe.

Join Pro

Comparision Forecast

View Surf forecast
   
Tue 03/31 9:40am 6 8 mph 1013.2mb 34f
9:30am 7
mph
1012.9mb 35f
9:20am 6 8 mph 1012.5mb 32f
9:10am 7 8 mph 1012.5mb 31f
9:00am 6 7 mph 1012.9mb 33f
8:40am 6 8 mph 1012.5mb 32f
8:30am 6 7 mph 1012.5mb 32f
8:20am 7
mph
1012.5mb 31f
8:10am 6 7 mph 1012.5mb 31f
8:00am 6 7 mph 1012.5mb 31f
7:40am 6 7 mph 1012.5mb 31f
7:30am 7 8 mph 1012.5mb 31f
7:20am 7 9 mph 1012.2mb 30f
7:10am 7 9 mph 1012.2mb 31f
7:00am 8 9 mph 1011.9mb 31f
6:40am 9 10 mph 1011.5mb 31f
6:30am 8 10 mph 1011.5mb 31f
6:20am 9 10 mph 1011.5mb 30f
6:10am 7 8 mph 1011.5mb 30f
6:00am 7 8 mph 1011.2mb 30f
5:40am 8 9 mph 1011.2mb 30f
5:30am 8 9 mph 1011.2mb 30f
5:20am 7 8 mph 1011.2mb 30f
5:10am 6 7 mph 1011.2mb 30f
5:00am 5
mph
1010.8mb 30f
4:40am 3 7 mph 1010.8mb 30f
4:30am 7 8 mph 1010.8mb 31f
4:20am 7 8 mph 1010.8mb 31f
4:10am 3 5 mph 1010.5mb 31f
4:00am 3 7 mph 1010.5mb 31f
3:40am 6 9 mph 1010.8mb 32f
3:30am 7 9 mph 1010.5mb 32f
3:20am 6 7 mph 1010.5mb 33f
3:10am 7 8 mph 1010.5mb 33f
3:00am 6 7 mph 1010.5mb 34f
2:40am 5 8 mph 1010.8mb 34f
2:30am 7 9 mph 1010.5mb 34f
2:20am 6 8 mph 1010.8mb 34f
2:10am 7 9 mph 1010.8mb 35f
2:00am 8 9 mph 1010.8mb 35f
1:40am 6 8 mph 1010.8mb 35f
1:30am 7 8 mph 1010.8mb 35f
1:20am 5 7 mph 1011.2mb 34f
1:10am 6 8 mph 1011.2mb 34f
1:00am 7 8 mph 1011.2mb 35f
12:40am 7 8 mph 1011.2mb 35f
12:30am 7 14 mph 1011.2mb 35f
12:20am 9 13 mph 1011.5mb 34f
12:10am 6 9 mph 1011.2mb 35f
12:00am 7 9 mph 1011.5mb 35f
Mon 03/30 11:40pm 9 11 mph 1011.5mb 35f
11:30pm 7 11 mph 1011.5mb 35f
11:20pm 9 14 mph 1011.5mb 35f
11:10pm 8 10 mph 1011.5mb 35f
11:00pm 8 11 mph 1011.5mb 34f
10:40pm 10 14 mph 1011.9mb 34f
10:30pm 10 15 mph 1011.5mb 34f
10:20pm 10 15 mph 1011.9mb 34f
10:10pm 13 15 mph 1011.9mb 35f
10:00pm 11 16 mph 1011.9mb 34f
9:40pm 9 10 mph 1011.9mb 34f
9:30pm 8 10 mph 1012.2mb 35f
9:20pm 9 10 mph 1011.9mb 34f
9:10pm 9 10 mph 1012.2mb 34f
9:00pm 9 14 mph 1012.2mb 35f
8:40pm 3 7 mph 1012.2mb 37f
8:30pm 5 8 mph 1011.9mb 38f
8:20pm 5 10 mph 1011.9mb 38f
8:10pm 6 10 mph 1011.5mb 39f
8:00pm 7 11 mph 1011.2mb 38f
7:40pm 7 11 mph 1011.2mb 38f
7:30pm 7 11 mph 1011.2mb 38f
7:20pm 9 14 mph 1011.2mb 38f
7:10pm 9 15 mph 1011.5mb 38f
7:00pm 8 17 mph 1011.5mb 39f
6:40pm 7 14 mph 1011.5mb 39f
6:30pm 8 15 mph 1011.5mb 40f
6:20pm 8 16 mph 1011.2mb 40f
6:10pm 9 14 mph 1011.5mb 40f
6:00pm 9 14 mph 1011.5mb 40f
5:40pm 8 14 mph 1011.5mb 41f
5:30pm 7 15 mph 1011.5mb 41f
5:20pm 8 16 mph 1011.5mb 41f
5:10pm 11 17 mph 1011.5mb 42f
5:00pm 9 13 mph 1011.9mb 43f
4:40pm 9 13 mph 1011.9mb 43f
4:30pm 10 15 mph 1012.2mb 43f
4:20pm 10 16 mph 1012.2mb 43f
4:10pm 8 14 mph 1012.2mb 43f
4:00pm 10 16 mph 1012.2mb 43f
3:40pm 10 14 mph 1012.2mb 46f
3:30pm 7 11 mph 1012.2mb 45f
3:20pm 8 11 mph 1012.5mb 45f
3:10pm 7 11 mph 1012.5mb 44f
3:00pm 9 11 mph 1012.9mb 44f
2:40pm 9 11 mph 1012.9mb 44f
2:30pm 7 10 mph 1012.9mb 43f
2:20pm 9 13 mph 1012.9mb 44f
2:10pm 9 10 mph 1013.2mb 43f
2:00pm 8 9 mph 1013.2mb 43f
1:40pm 5 9 mph 1013.2mb 44f
1:30pm 7 9 mph 1013.5mb 43f
1:20pm 6 8 mph 1013.5mb 43f
1:10pm 3 6 mph 1013.5mb 43f
1:00pm 5 6 mph 1013.5mb 43f
12:40pm 6 7 mph 1013.5mb 41f
12:30pm 3 6 mph 1013.2mb 41f
12:20pm 3 7 mph 1013.2mb 49f
12:10pm 7 10 mph 1013.2mb 44f
12:00pm 8 13 mph 1013.2mb 44f
11:40am 8 14 mph 1013.2mb 43f
11:30am 10 14 mph 1012.9mb 44f
11:20am 9 13 mph 1012.9mb 42f
11:10am 10 14 mph 1012.9mb 42f
11:00am 9 13 mph 1012.9mb 43f
10:40am 15 17 mph 1012.9mb 43f
10:30am 10 18 mph 1012.5mb 44f
10:20am 13 18 mph 1012.5mb 44f
10:10am 11 21 mph 1012.5mb 43f
10:00am 8 14 mph 1012.5mb 43f
9:50am 13 16 mph 1012.5mb 44f
9:40am 9 14 mph 1012.2mb 44f
9:30am 14 20 mph 1011.9mb 43f
9:20am 7 15 mph 1012.2mb 44f
9:10am 7 13 mph 1011.9mb 44f
9:00am 6 9 mph 1011.9mb 44f
8:50am 2 11 mph 1011.9mb 43f
8:40am 6 10 mph 1011.5mb 40f
8:30am 6 11 mph 1011.5mb 40f
8:20am 5 17 mph 1011.5mb 39f
8:10am 3 11 mph 1011.2mb 39f
8:00am 5 14 mph 1011.2mb 38f
7:50am 7 15 mph 1010.8mb 37f
7:40am 8 17 mph 1010.8mb 37f
7:30am 8 15 mph 1010.8mb 36f
7:20am 9 16 mph 1010.2mb 36f
7:10am 8 15 mph 1010.2mb 36f
7:00am 10 18 mph 1010.2mb 36f
6:50am 10 16 mph 1009.8mb 35f
6:40am 8 17 mph 1009.8mb 35f
6:30am 11 18 mph 1009.5mb 35f
6:20am 10 16 mph 1009.1mb 35f
6:10am 10 17 mph 1009.1mb 34f
6:00am 9 17 mph 1008.8mb 34f
5:50am 10 17 mph 1008.8mb 35f
5:40am 14 17 mph 1008.8mb 35f
5:30am 10 20 mph 1008.8mb 35f
5:20am 10 18 mph 1008.5mb 35f
5:10am 13 23 mph 1008.5mb 35f
5:00am 10 17 mph 1008.5mb 34f
4:50am 9 16 mph 1008.5mb 35f
4:40am 9 16 mph 1008.8mb 34f
4:30am 9 15 mph 1008.5mb 34f
4:20am 10 16 mph 1008.5mb 34f
4:10am 9 17 mph 1008.5mb 34f
4:00am 9 15 mph 1008.5mb 35f
3:50am 8 15 mph 1008.5mb 34f
3:40am 8 14 mph 1008.5mb 35f
3:30am 8 15 mph 1008.5mb 35f
3:20am 9 15 mph 1008.8mb 35f
3:10am 7 13 mph 1008.8mb 35f
3:00am 9 13 mph 1008.8mb 35f
2:50am 8 14 mph 1008.8mb 35f
2:40am 8 11 mph 1008.8mb 35f
2:30am 8 15 mph 1008.8mb 35f
2:20am 8 15 mph 1008.8mb 35f
2:10am 8 16 mph 1008.8mb 35f
2:00am 7 15 mph 1008.8mb 35f
1:50am 8 14 mph 1008.5mb 35f
1:40am 8 15 mph 1008.5mb 36f
1:30am 7 16 mph 1008.1mb 36f
1:20am 8 15 mph 1008.1mb 36f
1:10am 7 13 mph 1008.1mb 36f
1:00am 7 11 mph 1007.8mb 37f
12:50am 5 8 mph 1007.8mb 37f
12:40am 3 11 mph 1007.8mb 37f
12:30am 3 9 mph 1007.8mb 37f
12:20am 3 9 mph 1007.8mb 37f
12:10am 7 11 mph 1007.8mb 37f
12:00am 6 10 mph 1007.5mb 37f
Sun 03/29 11:50pm 3 8 mph 1007.5mb 37f
11:40pm 2 13 mph 1007.5mb 37f
11:30pm 7 13 mph 1007.1mb 38f
11:20pm 8 20 mph 1007.1mb 38f
11:10pm 9 16 mph 1007.1mb 38f
11:00pm 8 15 mph 1006.8mb 38f
10:50pm 6 13 mph 1006.8mb 38f
10:40pm 6 13 mph 1006.4mb 38f
10:30pm 5 11 mph 1006.4mb 38f
10:20pm 3 9 mph 1006.1mb 38f
10:10pm 3 10 mph 1006.1mb 37f
10:00pm 5 9 mph 1005.8mb 37f
9:50pm 3 8 mph 1005.8mb 37f
9:40pm 3 8 mph 1005.4mb 37f
9:30pm 5 10 mph 1005.4mb 37f
9:20pm 2 10 mph 1005.4mb 37f
9:10pm 3 11 mph 1005.1mb 37f
9:00pm 5 10 mph 1005.1mb 37f
8:50pm 6 14 mph 1004.7mb 37f
8:40pm 6 13 mph 1004.4mb 37f
8:30pm 6 13 mph 1004.1mb 37f
8:20pm 6 14 mph 1003.7mb 37f
8:10pm 6 15 mph 1003.7mb 37f
8:00pm 6 13 mph 1003mb 37f
7:50pm 5 13 mph 1002.7mb 37f
7:40pm 6 15 mph 1002.4mb 37f
7:30pm 7 11 mph 1002mb 37f
7:20pm 5 16 mph 1001.7mb 37f
7:10pm 9 20 mph 1001.7mb 37f
7:00pm 10 18 mph 1001.4mb 37f
6:50pm 11 20 mph 1001mb 37f
6:40pm 10 17 mph 1001mb 36f
6:30pm 8 14 mph 1001mb 36f
6:20pm 8 14 mph 1001mb 35f
6:10pm 9 17 mph 1000.7mb 35f
6:00pm 10 17 mph 1000.7mb 35f
5:50pm 9 17 mph 1000.7mb 34f
5:40pm 8 21 mph 1000.7mb 34f
5:30pm 10 18 mph 1000.3mb 34f
5:20pm 9 20 mph 1000.3mb 34f
5:10pm 10 20 mph 1000.3mb 34f
5:00pm 9 16 mph 1000.3mb 34f
4:50pm 10 18 mph 1000.3mb 34f
4:40pm 8 22 mph 1000mb 33f
4:30pm 8 22 mph 1000.3mb 33f
4:20pm 11 21 mph 1000mb 33f
4:10pm 10 18 mph 1000.3mb 33f
4:00pm 11 23 mph 1000.3mb 33f
3:50pm 11 21 mph 1000.3mb 33f
3:40pm 11 23 mph 1000.7mb 33f
3:30pm 11 22 mph 1000.7mb 33f
3:20pm 9 22 mph 1000.7mb 33f
3:10pm 10 23 mph 1001.4mb 33f
3:00pm 14 23 mph 1001.4mb 33f
2:50pm 10 22 mph 1001.4mb 33f
2:40pm 13 22 mph 1001.7mb 33f
2:30pm 11 26 mph 1002mb 33f
2:20pm 7 14 mph 1002.4mb 32f
2:10pm 7 11 mph 1002.4mb 32f
2:00pm 7 16 mph 1002.4mb 32f
1:50pm 8 16 mph 1002.4mb 32f
12:40pm 13 24 mph 1004.4mb 31f
12:30pm 9 20 mph 1004.7mb 31f
12:20pm 10 23 mph 1005.4mb 31f
12:10pm 10 21 mph 1005.8mb 31f
12:00pm 11 22 mph 1005.8mb 32f
11:50am 11 22 mph 1005.8mb 32f
11:40am 11 23 mph 1005.4mb 32f
11:30am 11 22 mph 1006.1mb 32f
11:20am 16 31 mph 1006.1mb 31f
11:10am 14 25 mph 1006.4mb 32f
11:00am 13 25 mph 1007.1mb 33f
10:50am 9 22 mph 1007.8mb 34f
10:40am 13 23 mph 1007.8mb 34f
10:30am 14 25 mph 1008.5mb 34f
10:20am 11 23 mph 1007.8mb 34f
10:10am 13 21 mph 1008.1mb 35f
10:00am 15 25 mph 1008.5mb 34f
9:50am 9 28 mph 1008.8mb 34f
9:40am 14 24 mph 1009.5mb 33f
9:30am 13 26 mph 1009.8mb 33f
9:20am 9 26 mph 1010.5mb 32f
9:10am 14 26 mph 1010.8mb 33f
9:00am 10 23 mph 1011.2mb 33f
8:50am 11 24 mph 1011.5mb 31f
8:40am 10 22 mph 1011.5mb 31f
8:30am 8 22 mph 1011.9mb 31f
8:20am 10 23 mph 1012.2mb 31f
8:10am 9 20 mph 1012.2mb 30f
8:00am 13 23 mph 1012.5mb 30f
7:50am 13 22 mph 1012.9mb 30f
7:40am 13 18 mph 1013.5mb 30f
7:30am 8 20 mph 1014.2mb 30f
7:20am 11 18 mph 1014.2mb 29f
7:10am 9 18 mph 1014.6mb 29f
7:00am 7 15 mph 1014.9mb 29f
6:50am 7 20 mph 1015.2mb 29f
6:40am 9 20 mph 1014.9mb 29f
6:30am 8 16 mph 1015.6mb 29f
6:20am 9 18 mph 1015.6mb 29f
6:10am 8 17 mph 1015.6mb 29f
6:00am 8 21 mph 1015.6mb 29f
5:50am 6 20 mph 1015.6mb 29f
5:40am 9 17 mph 1015.2mb 29f
5:30am 9 20 mph 1015.2mb 29f
5:20am 11 20 mph 1015.6mb 29f
5:10am 7 17 mph 1015.6mb 29f
5:00am 10 21 mph 1015.9mb 29f
4:50am 10 20 mph 1016.3mb 29f
4:40am 9 17 mph 1016.3mb 29f
4:30am 9 17 mph 1016.3mb 29f
4:20am 10 17 mph 1016.6mb 29f
4:10am 9 15 mph 1016.9mb 28f
4:00am 9 22 mph 1016.9mb 28f
3:50am 7 16 mph 1016.9mb 28f
3:40am 9 16 mph 1017.3mb 28f
3:30am 9 17 mph 1017.3mb 28f
3:20am 9 16 mph 1017.6mb 28f
3:10am 9 15 mph 1017.6mb 28f
3:00am 8 21 mph 1017.6mb 28f
2:50am 8 20 mph 1017.9mb 28f
2:40am 9 18 mph 1018.3mb 28f
2:30am 9 20 mph 1018.6mb 28f
2:20am 8 18 mph 1018.6mb 28f
2:10am 7 18 mph 1019mb 28f
2:00am 9 16 mph 1019mb 27f
1:50am 9 18 mph 1019mb 27f
1:40am 9 20 mph 1019.3mb 27f
1:30am 8 17 mph 1019.3mb 27f
1:20am 9 17 mph 1019.6mb 27f
1:10am 9 16 mph 1019.6mb 27f
1:00am 8 21 mph 1019.6mb 27f
12:50am 11 18 mph 1020mb 27f
12:40am 8 16 mph 1020.3mb 27f
12:30am 8 23 mph 1020.3mb 28f
12:20am 9 18 mph 1020.3mb 28f
12:10am 5 16 mph 1020.3mb 27f
12:00am 8 15 mph 1020.7mb 28f
Sat 03/28 11:50pm 8 17 mph 1020.7mb 28f
11:40pm 6 16 mph 1021mb 28f
11:30pm 8 18 mph 1021mb 28f
11:20pm 8 17 mph 1021.3mb 28f
11:10pm 10 18 mph 1021.3mb 28f
11:00pm 8 14 mph 1021.3mb 28f
10:50pm 6 14 mph 1021.7mb 28f
10:40pm 7 14 mph 1021.7mb 28f
10:30pm 7 14 mph 1021.7mb 28f
10:20pm 7 15 mph 1021.7mb 28f
10:10pm 7 16 mph 1021.7mb 28f
10:00pm 8 16 mph 1021.7mb 28f
9:50pm 8 16 mph 1021.7mb 28f
9:40pm 8 17 mph 1022mb 28f
9:30pm 8 18 mph 1022mb 29f
9:20pm 7 15 mph 1022mb 28f
9:10pm 9 16 mph 1022mb 28f
9:00pm 9 14 mph 1022mb 29f
8:50pm 6 15 mph 1022mb 29f
8:40pm 6 13 mph 1022mb 28f
8:30pm 8 16 mph 1022.4mb 29f
8:20pm 7 15 mph 1022mb 29f
8:10pm 7 14 mph 1022mb 29f
8:00pm 9 17 mph 1022mb 29f
7:50pm 8 15 mph 1022.4mb 29f
7:40pm 6 14 mph 1022.4mb 29f
7:30pm 7 13 mph 1022mb 29f
7:20pm 7 15 mph 1022.4mb 29f
7:10pm 6 11 mph 1022.4mb 30f
7:00pm 6 15 mph 1022.4mb 30f
6:50pm 8 13 mph 1022.4mb 31f
6:40pm 6 13 mph 1022.4mb 31f
6:30pm 5 16 mph 1022.4mb 32f
6:20pm 7 15 mph 1022.7mb 32f
6:10pm 6 10 mph 1022.7mb 33f
6:00pm 6 13 mph 1023mb 33f
5:50pm 7 13 mph 1023mb 34f
5:40pm 8 15 mph 1023mb 34f
5:30pm 6 16 mph 1023mb 34f
5:20pm 8 15 mph 1023mb 35f
5:10pm 5 14 mph 1023mb 35f
5:00pm 7 14 mph 1023.4mb 35f
4:50pm 8 17 mph 1023.4mb 34f
4:40pm 8 14 mph 1023.7mb 35f
4:30pm 8 14 mph 1023.4mb 34f
4:20pm 8 17 mph 1023.7mb 34f
4:10pm 8 15 mph 1023.7mb 34f
4:00pm 9 15 mph 1024mb 33f
3:50pm 8 14 mph 1024mb 33f
3:40pm 8 17 mph 1024.4mb 34f
3:30pm 7 15 mph 1024.4mb 32f
3:20pm 8 15 mph 1024.4mb 32f
3:10pm 8 14 mph 1024.4mb 32f
3:00pm 9 14 mph 1024.4mb 32f
2:50pm 9 14 mph 1024.4mb 32f
2:40pm 8 15 mph 1024.7mb 31f
2:30pm 6 15 mph 1024.7mb 32f
2:20pm 6 13 mph 1025.1mb 32f
2:10pm 7 11 mph 1025.1mb 31f
2:00pm 8 11 mph 1025.1mb 31f
1:50pm 6 14 mph 1025.4mb 30f
1:40pm 5 11 mph 1025.4mb 31f
1:30pm 7 13 mph 1025.7mb 31f
1:20pm 8 14 mph 1025.7mb 29f
1:10pm 8 15 mph 1026.1mb 30f
1:00pm 8 15 mph 1025.7mb 29f
12:50pm 9 14 mph 1025.7mb 28f
12:40pm 8 15 mph 1026.1mb 28f
12:30pm 8 13 mph 1026.1mb 28f
12:20pm 8 15 mph 1026.1mb 27f
12:10pm 8 14 mph 1026.4mb 27f
12:00pm 8 13 mph 1026.4mb 28f
11:50am 8 13 mph 1026.4mb 28f
11:40am 7 13 mph 1026.8mb 27f
11:30am 6 11 mph 1027.1mb 27f
11:20am 7 9 mph 1027.1mb 26f
11:10am 8 11 mph 1027.1mb 25f
11:00am 8 13 mph 1027.1mb 25f
10:50am 6 10 mph 1027.1mb 26f
10:40am 6 8 mph 1027.1mb 26f
10:30am 7 10 mph 1027.4mb 25f
10:20am 2 6 mph 1027.1mb 28f
10:10am 2 5 mph 1027.1mb 30f
10:00am 2 3 mph 1027.1mb 31f
9:50am 2 5 mph 1027.4mb 28f
9:40am 3 6 mph 1027.1mb 21f
9:30am 3 5 mph 1027.1mb 22f
9:20am 3 7 mph 1027.1mb 21f
9:10am 5 7 mph 1027.1mb 20f
9:00am 6 7 mph 1027.1mb 20f
8:50am 6 7 mph 1027.1mb 21f
8:40am 5 6 mph 1027.1mb 21f
8:30am 1 2 mph 1027.1mb 25f
8:20am 1 2 mph 1027.1mb 22f
8:10am 1 2 mph 1026.8mb 22f
8:00am 1 2 mph 1026.8mb 24f
7:50am 1
mph
1026.8mb 23f
7:40am  -  1 mph 1026.4mb 20f
7:30am  -  mph 1026.4mb 16f
7:20am  -  mph 1026.4mb 13f
7:10am  -  mph 1026.1mb 11f
7:00am  -  mph 1026.1mb 9f
6:50am  -  mph 1025.7mb 9f
6:40am  -  mph 1025.7mb 9f
6:30am  -  mph 1025.4mb 8f
6:20am  -  mph 1025.4mb 8f
6:10am  -  mph 1025.4mb 9f
6:00am  -  mph 1025.4mb 10f
5:50am  -  mph 1025.4mb 9f
5:40am  -  mph 1025.1mb 9f
5:30am  -  mph 1025.1mb 9f
5:20am  -  mph 1025.1mb 9f
5:10am  -  mph 1025.1mb 9f
5:00am  -  mph 1024.7mb 9f
4:50am  -  mph 1024.7mb 9f
4:40am  -  mph 1024.7mb 9f
4:30am  -  1 mph 1024.7mb 11f
4:20am  -  2 mph 1024.7mb 9f
4:10am  -  1 mph 1024.7mb 10f
4:00am  -  1 mph 1024.7mb 10f
3:40am  -  1 mph 1024.7mb 11f
3:30am  -  mph 1024.7mb 11f
3:20am  -  3 mph 1024.7mb 12f
3:10am  -  mph 1024.7mb 11f
3:00am  -  mph 1024.7mb 9f
2:50am  -  mph 1024.7mb 10f
2:40am  -  1 mph 1024.7mb 11f
2:30am  -  mph 1024.7mb 10f
2:20am  -  mph 1024.7mb 11f
2:10am  -  mph 1024.4mb 12f
2:00am  -  1 mph 1024.7mb 13f
1:50am  -  2 mph 1024.7mb 14f
1:40am  -  5 mph 1024.4mb 14f
1:30am 5 7 mph 1024.4mb 17f
1:20am 6 7 mph 1024.4mb 17f
1:10am 5 6 mph 1024.4mb 17f
1:00am 3 6 mph 1024.4mb 17f
12:50am 5 7 mph 1024.4mb 17f
12:40am 5 6 mph 1024.4mb 17f
12:30am 5 7 mph 1024.4mb 17f
12:20am 6 8 mph 1024.4mb 17f
12:10am 7 9 mph 1024.4mb 17f
12:00am 6 9 mph 1024.4mb 18f
Fri 03/27 11:40pm 9 11 mph 1024.4mb 18f
11:30pm 9 11 mph 1024.4mb 18f
11:20pm 9 13 mph 1024mb 18f
11:10pm 10 14 mph 1024mb 18f
11:00pm 10 13 mph 1024mb 18f
10:50pm 10 13 mph 1024mb 19f
10:40pm 9 14 mph 1024mb 19f
10:30pm 9 11 mph 1024mb 19f
10:20pm 9 14 mph 1024mb 19f
10:10pm 10 13 mph 1023.7mb 19f
10:00pm 8 11 mph 1023.7mb 19f
9:50pm 8 13 mph 1023.7mb 19f
9:40pm 9 13 mph 1023.7mb 20f
9:30pm 10 13 mph 1023.7mb 20f
9:20pm 9 13 mph 1023.7mb 20f
9:10pm 8 13 mph 1023.7mb 20f
9:00pm 10 15 mph 1023.4mb 20f
8:50pm 11 15 mph 1023.4mb 21f
8:40pm 10 14 mph 1023.4mb 21f
8:30pm 11 13 mph 1023.4mb 21f
8:20pm 9 13 mph 1023mb 21f
8:10pm 9 14 mph 1023.4mb 21f
8:00pm 9 14 mph 1023mb 21f
7:50pm 11 14 mph 1023mb 21f
7:40pm 9 13 mph 1023mb 21f
7:30pm 10 14 mph 1023mb 22f
7:20pm 10 14 mph 1023mb 22f
7:10pm 13 16 mph 1022.7mb 22f
7:00pm 10 13 mph 1023mb 22f
6:50pm 9 14 mph 1023mb 22f
6:40pm 9 13 mph 1022.7mb 22f
6:30pm 10 15 mph 1022.7mb 22f
6:20pm 9 15 mph 1022.7mb 22f
6:10pm 11 14 mph 1022.7mb 22f
6:00pm 11 15 mph 1022.7mb 22f
5:50pm 9 16 mph 1022.4mb 22f
5:40pm 8 16 mph 1022.4mb 22f
5:30pm 11 17 mph 1022.4mb 22f
5:20pm 11 16 mph 1022.4mb 22f
5:10pm 11 16 mph 1022.4mb 22f
5:00pm 11 16 mph 1022.4mb 22f
4:50pm 13 16 mph 1022.4mb 22f
4:40pm 13 16 mph 1022.4mb 22f
4:30pm 13 17 mph 1022.4mb 22f
4:20pm 11 15 mph 1022.4mb 22f
4:10pm 10 15 mph 1022.4mb 22f
4:00pm 10 16 mph 1022.4mb 21f
3:50pm 13 16 mph 1022.4mb 21f
3:40pm 9 13 mph 1022.7mb 21f